Search for airport 
image banner adimage banner adimage banner ad
image banner ad

CN48 - St Joseph's Medical Center

Located in Stockton, United States

ICAO - CN48, IATA -

Data provided by Airmate  

General information

Coordinates: N37°58'13" W121°17'16"
Elevation is 47 feet MSL.
Magnetic variation is 13° East
View others Airports in California

Operational data

Special qualification required
Current time UTC:
Current local time:
Weather at : KSCK - Stockton Metropolitan ( 9 km )
METAR: KSCK 231455Z 31006KT 10SM CLR 16/12 A2994 RMK AO2 SLP137 T01610122 53009
TAF: KSCK 231120Z 2312/2412 34007KT P6SM SKC
View NOTAMs / SUP AIP / TFR affecting this airport [VIEW]
Communications frequencies: [VIEW]

Runways:

Airport contact information

Address: Stockton United States

Satellite view of CN48